Time;durP1;ratioP1;P1;durP2;ratioP2;P2;SDS_P1;SDS_P2;PMS_P1;PMS_P2;Temp;Humidity;BMP_temperature;BMP_pressure;BME280_temperature;BME280_humidity;BME280_pressure;Samples;Min_cycle;Max_cycle;Signal;HPM_P1;HPM_P2
2022/11/25 00:01:10;;;;;;;0.00;0.00;;;;;;;8.91;50.48;94874.19;4953712;29;20234;-64
2022/11/25 00:03:38;;;;;;;0.00;0.00;;;;;;;8.52;51.14;94885.72;4953513;28;20233;-63
2022/11/25 00:06:08;;;;;;;0.00;0.00;;;;;;;8.11;51.60;94884.41;4937615;28;20307;-62
2022/11/25 00:08:36;;;;;;;0.20;0.20;;;;;;;8.29;51.76;94875.53;4942991;29;20212;-62
2022/11/25 00:11:03;;;;;;;0.38;0.38;;;;;;;8.43;50.99;94886.41;4951122;28;20204;-62
2022/11/25 00:13:31;;;;;;;0.10;0.10;;;;;;;8.52;50.84;94867.44;4941498;29;20251;-64
2022/11/25 00:16:06;;;;;;;0.75;0.50;;;;;;;8.42;51.40;94888.22;4952967;28;20298;-63
2022/11/25 00:18:33;;;;;;;0.10;0.10;;;;;;;8.17;51.51;94893.09;4941003;29;20243;-62
2022/11/25 00:21:12;;;;;;;0.00;0.00;;;;;;;8.60;50.62;94901.00;4953219;28;20251;-64
2022/11/25 00:23:40;;;;;;;0.00;0.00;;;;;;;8.84;50.17;94894.50;4946014;28;20196;-61
2022/11/25 00:26:11;;;;;;;0.00;0.00;;;;;;;8.90;50.42;94890.91;4933872;29;20292;-62
2022/11/25 00:28:39;;;;;;;0.00;0.00;;;;;;;8.37;51.28;94893.38;4933470;29;20196;-62
2022/11/25 00:31:29;;;;;;;0.00;0.00;;;;;;;8.47;50.16;94892.72;4946490;28;20211;-63
2022/11/25 00:33:57;;;;;;;0.30;0.30;;;;;;;8.36;50.87;94897.00;4931982;29;20205;-64
2022/11/25 00:36:30;;;;;;;0.25;0.25;;;;;;;8.18;51.21;94895.44;4933611;29;20756;-63
2022/11/25 00:39:05;;;;;;;0.00;0.00;;;;;;;8.31;50.91;94886.50;4934883;29;20239;-65
2022/11/25 00:44:35;;;;;;;0.00;0.00;;;;;;;8.28;51.72;94884.41;4940603;28;20210;-63
2022/11/25 00:47:08;;;;;;;2.35;0.57;;;;;;;8.59;50.70;94891.59;4950328;28;20306;-65
2022/11/25 00:49:36;;;;;;;0.13;0.13;;;;;;;8.21;51.20;94894.19;4937505;29;20304;-64
2022/11/25 00:52:04;;;;;;;1.17;1.08;;;;;;;8.40;51.55;94897.31;4933708;29;20684;-62
2022/11/25 00:54:31;;;;;;;0.20;0.20;;;;;;;8.17;51.96;94888.63;4938187;28;20324;-63
2022/11/25 00:56:59;;;;;;;0.00;0.00;;;;;;;8.31;51.62;94894.34;4952451;28;20286;-63
2022/11/25 00:59:28;;;;;;;0.00;0.00;;;;;;;8.52;51.30;94896.19;4947696;28;20205;-67
2022/11/25 01:01:58;;;;;;;0.85;0.40;;;;;;;8.68;50.83;94900.56;4939011;29;20243;-64
2022/11/25 01:04:25;;;;;;;0.00;0.00;;;;;;;8.60;51.38;94903.59;4949244;28;20267;-65
2022/11/25 01:06:53;;;;;;;0.00;0.00;;;;;;;8.43;52.15;94897.63;4952228;28;20245;-61
2022/11/25 01:09:21;;;;;;;0.35;0.32;;;;;;;8.26;51.58;94889.06;4938679;29;20200;-62
2022/11/25 01:11:49;;;;;;;0.00;0.00;;;;;;;8.34;52.25;94899.06;4943370;28;20742;-61
2022/11/25 01:14:17;;;;;;;0.00;0.00;;;;;;;8.55;51.18;94903.53;4931213;28;20263;-64
2022/11/25 01:16:46;;;;;;;0.15;0.15;;;;;;;8.62;51.72;94893.69;4939397;29;20251;-64
2022/11/25 01:19:13;;;;;;;0.10;0.10;;;;;;;8.47;51.84;94893.50;4938675;29;20200;-65
2022/11/25 01:21:40;;;;;;;0.30;0.30;;;;;;;8.61;50.99;94899.94;4932774;28;20629;-64
2022/11/25 01:24:13;;;;;;;0.55;0.55;;;;;;;8.25;51.71;94890.06;4932500;29;20632;-64
2022/11/25 01:26:40;;;;;;;0.90;0.73;;;;;;;8.58;51.35;94897.81;4934218;29;20200;-65
2022/11/25 01:29:13;;;;;;;0.05;0.05;;;;;;;8.84;50.87;94902.34;4938819;29;20227;-63
2022/11/25 01:31:40;;;;;;;0.05;0.05;;;;;;;8.86;50.31;94902.88;4935769;29;20212;-63
2022/11/25 01:34:13;;;;;;;0.00;0.00;;;;;;;9.33;49.39;94899.69;4951488;28;20219;-64
2022/11/25 01:36:40;;;;;;;0.00;0.00;;;;;;;9.00;50.14;94898.84;4951680;28;20679;-65
2022/11/25 01:39:12;;;;;;;0.00;0.00;;;;;;;8.64;50.66;94898.69;4948155;29;20695;-62
2022/11/25 01:41:38;;;;;;;1.25;1.15;;;;;;;9.09;49.82;94888.75;4946460;29;20200;-63
2022/11/25 01:44:20;;;;;;;0.00;0.00;;;;;;;8.96;50.07;94886.50;4932824;29;20212;-63
2022/11/25 01:47:05;;;;;;;0.65;0.65;;;;;;;9.07;49.53;94883.75;4947534;28;20231;-63
2022/11/25 01:50:01;;;;;;;0.10;0.10;;;;;;;9.25;49.46;94866.16;4952027;28;20298;-62
2022/11/25 01:52:33;;;;;;;0.00;0.00;;;;;;;9.21;49.23;94864.03;4949719;28;20565;-64
2022/11/25 01:55:14;;;;;;;0.93;0.70;;;;;;;8.98;49.41;94866.94;4942299;28;20444;-65
2022/11/25 01:57:44;;;;;;;0.00;0.00;;;;;;;8.97;49.39;94868.00;4947793;28;20656;-62
2022/11/25 02:00:12;;;;;;;0.00;0.00;;;;;;;9.01;48.99;94863.81;4950150;29;20658;-64
2022/11/25 02:02:52;;;;;;;0.00;0.00;;;;;;;9.26;49.04;94859.88;4950329;29;20195;-64
2022/11/25 02:05:39;;;;;;;0.00;0.00;;;;;;;9.34;48.33;94862.88;4947106;29;20216;-63
2022/11/25 02:08:07;;;;;;;0.05;0.05;;;;;;;9.46;47.82;94875.75;4946341;28;20232;-62
2022/11/25 02:10:35;;;;;;;1.10;1.00;;;;;;;9.49;47.97;94878.66;4930985;29;20255;-64
2022/11/25 02:13:02;;;;;;;0.10;0.10;;;;;;;9.40;47.63;94876.78;4949320;28;20222;-63
2022/11/25 02:15:32;;;;;;;0.00;0.00;;;;;;;9.35;47.77;94880.13;4951599;28;20188;-61
2022/11/25 02:17:59;;;;;;;0.03;0.03;;;;;;;9.46;47.65;94873.16;4950297;28;20303;-63
2022/11/25 02:20:26;;;;;;;0.85;0.22;;;;;;;9.33;47.83;94884.81;4951711;28;20204;-65
2022/11/25 02:23:14;;;;;;;0.30;0.30;;;;;;;9.51;47.29;94886.25;4951474;28;20204;-64
2022/11/25 02:25:45;;;;;;;0.00;0.00;;;;;;;9.32;48.01;94892.91;4950780;28;20228;-63
2022/11/25 02:28:23;;;;;;;0.10;0.10;;;;;;;8.95;48.02;94895.38;4946574;28;20669;-64
2022/11/25 02:30:51;;;;;;;0.00;0.00;;;;;;;9.10;48.06;94898.94;4940926;29;20562;-63
2022/11/25 02:33:19;;;;;;;0.03;0.03;;;;;;;8.94;48.26;94889.38;4936373;29;20634;-64
2022/11/25 02:35:51;;;;;;;0.00;0.00;;;;;;;9.12;47.55;94896.88;4954333;28;20188;-62
2022/11/25 02:38:44;;;;;;;0.30;0.30;;;;;;;8.78;47.98;94897.28;4954868;28;20196;-62
2022/11/25 02:41:18;;;;;;;0.00;0.00;;;;;;;8.81;48.45;94894.97;4950442;28;20266;-63
2022/11/25 02:43:51;;;;;;;0.10;0.10;;;;;;;8.69;47.88;94886.47;4949778;29;20440;-65
2022/11/25 02:46:20;;;;;;;0.08;0.08;;;;;;;9.16;47.11;94895.34;4945627;29;20224;-62
2022/11/25 02:48:50;;;;;;;2.10;1.10;;;;;;;9.05;47.37;94895.50;4950216;28;20740;-63
2022/11/25 02:51:43;;;;;;;0.00;0.00;;;;;;;8.77;47.65;94896.50;4942761;29;20263;-63
2022/11/25 02:54:15;;;;;;;0.00;0.00;;;;;;;8.90;47.23;94898.75;4946992;29;20200;-62
2022/11/25 02:56:42;;;;;;;0.90;0.85;;;;;;;9.12;47.37;94898.72;4943309;29;20204;-63
2022/11/25 02:59:09;;;;;;;0.25;0.25;;;;;;;8.93;46.94;94895.63;4939652;29;20208;-63
2022/11/25 03:01:37;;;;;;;0.00;0.00;;;;;;;8.81;47.31;94894.19;4953150;28;20570;-60
2022/11/25 03:04:06;;;;;;;0.00;0.00;;;;;;;8.98;47.84;94900.91;4949833;29;20237;-63
2022/11/25 03:06:34;;;;;;;0.10;0.10;;;;;;;9.40;46.49;94892.47;4940289;28;20656;-64
2022/11/25 03:09:01;;;;;;;0.00;0.00;;;;;;;9.26;47.27;94896.50;4952987;28;20224;-63
2022/11/25 03:14:15;;;;;;;0.00;0.00;;;;;;;9.30;47.31;94900.19;4963055;28;20207;-66
2022/11/25 03:16:42;;;;;;;2.40;0.40;;;;;;;9.27;47.48;94903.31;4949762;28;20215;-64
2022/11/25 03:19:09;;;;;;;0.00;0.00;;;;;;;9.19;47.49;94907.97;4945771;29;20262;-67
2022/11/25 03:21:36;;;;;;;0.17;0.17;;;;;;;9.23;47.71;94914.25;4952903;28;20215;-61
2022/11/25 03:24:03;;;;;;;0.47;0.47;;;;;;;8.42;48.87;94916.94;4944060;28;20603;-63
2022/11/25 03:26:30;;;;;;;0.00;0.00;;;;;;;8.36;49.42;94917.91;4951307;29;20231;-64
2022/11/25 03:28:57;;;;;;;0.00;0.00;;;;;;;8.48;49.53;94926.44;4945511;28;20994;-62
2022/11/25 03:31:24;;;;;;;0.00;0.00;;;;;;;8.16;50.59;94915.78;4935911;29;20287;-61
2022/11/25 03:33:51;;;;;;;0.00;0.00;;;;;;;8.18;50.85;94915.53;4954104;28;20196;-62
2022/11/25 03:36:19;;;;;;;0.10;0.10;;;;;;;8.10;50.41;94919.34;4939735;28;20200;-64
2022/11/25 03:38:46;;;;;;;0.22;0.22;;;;;;;8.74;49.89;94924.94;4939024;28;20196;-62
2022/11/25 03:41:13;;;;;;;0.10;0.10;;;;;;;8.48;50.92;94936.88;4941165;29;20299;-63
2022/11/25 03:43:40;;;;;;;0.10;0.10;;;;;;;8.46;50.66;94936.34;4946554;29;20199;-62
2022/11/25 03:46:07;;;;;;;0.70;0.70;;;;;;;8.50;50.55;94940.03;4951735;28;20264;-63
2022/11/25 03:48:34;;;;;;;0.00;0.00;;;;;;;7.98;52.71;94943.94;4949187;29;20220;-65
2022/11/25 03:51:01;;;;;;;0.00;0.00;;;;;;;8.29;52.08;94938.16;4941179;29;20266;-66
2022/11/25 03:53:28;;;;;;;0.00;0.00;;;;;;;8.50;51.65;94940.03;4941629;28;20200;-65
2022/11/25 03:55:57;;;;;;;0.00;0.00;;;;;;;8.49;52.05;94948.91;4939451;29;20205;-63
2022/11/25 03:58:24;;;;;;;0.00;0.00;;;;;;;8.50;51.49;94955.72;4947904;29;20200;-64
2022/11/25 04:00:51;;;;;;;0.05;0.05;;;;;;;8.38;52.04;94952.41;4944408;29;20219;-63
2022/11/25 04:03:18;;;;;;;0.30;0.30;;;;;;;8.28;52.65;94962.72;4946569;29;20196;-64
2022/11/25 04:05:45;;;;;;;0.00;0.00;;;;;;;8.32;52.46;94969.00;4952125;28;20198;-63
2022/11/25 04:08:12;;;;;;;0.00;0.00;;;;;;;8.11;53.10;94962.69;4949066;28;20744;-65
2022/11/25 04:10:39;;;;;;;0.00;0.00;;;;;;;8.43;52.55;94965.50;4945851;28;20687;-61
2022/11/25 04:13:08;;;;;;;0.00;0.00;;;;;;;8.50;52.30;94966.16;4945014;29;20307;-65
2022/11/25 04:15:47;;;;;;;0.65;0.65;;;;;;;8.21;52.86;94967.28;4947591;28;20296;-63
2022/11/25 04:18:16;;;;;;;0.30;0.30;;;;;;;8.58;52.64;94967.53;4943588;29;20235;-62
2022/11/25 04:20:44;;;;;;;0.00;0.00;;;;;;;8.49;52.69;94975.00;4939601;28;20675;-63
2022/11/25 04:23:12;;;;;;;0.00;0.00;;;;;;;8.42;52.52;94966.56;4948576;28;20287;-66
2022/11/25 04:25:50;;;;;;;0.35;0.30;;;;;;;8.54;51.89;94975.06;4965401;28;20203;-62
2022/11/25 04:28:34;;;;;;;0.00;0.00;;;;;;;8.48;52.34;94989.09;4951589;28;20246;-63
2022/11/25 04:31:07;;;;;;;0.00;0.00;;;;;;;8.42;52.68;94989.25;4938652;29;20695;-63
2022/11/25 04:33:37;;;;;;;0.05;0.05;;;;;;;8.47;52.48;94992.72;4952969;29;20207;-64
2022/11/25 04:36:05;;;;;;;0.00;0.00;;;;;;;8.31;52.83;94993.53;4952740;28;20551;-62
2022/11/25 04:38:32;;;;;;;0.15;0.15;;;;;;;8.36;52.83;94991.00;4952762;28;20255;-66
2022/11/25 04:41:00;;;;;;;0.20;0.20;;;;;;;8.30;52.58;95002.41;4937833;29;20562;-64
2022/11/25 04:43:30;;;;;;;0.10;0.10;;;;;;;8.29;52.50;95003.44;4951264;29;20254;-62
2022/11/25 04:46:05;;;;;;;0.00;0.00;;;;;;;8.16;53.08;95012.34;4951086;28;20247;-63
2022/11/25 04:48:43;;;;;;;0.10;0.10;;;;;;;8.20;52.53;94999.59;4951521;28;20219;-64
2022/11/25 04:51:09;;;;;;;0.28;0.28;;;;;;;8.32;52.52;95005.56;4943375;28;20344;-61
2022/11/25 04:53:38;;;;;;;0.08;0.08;;;;;;;8.39;52.64;94998.38;4948077;29;20208;-64
2022/11/25 04:56:06;;;;;;;0.10;0.10;;;;;;;8.42;52.20;95020.59;4949991;29;20294;-67
2022/11/25 05:01:26;;;;;;;0.30;0.30;;;;;;;8.32;52.27;95026.44;4950256;28;20594;-62
2022/11/25 05:04:01;;;;;;;0.00;0.00;;;;;;;8.52;51.99;95020.75;4948127;29;20195;-61
2022/11/25 05:06:28;;;;;;;0.00;0.00;;;;;;;8.39;51.73;95031.53;4931729;29;20214;-59
2022/11/25 05:08:55;;;;;;;2.15;1.95;;;;;;;8.25;52.38;95035.47;4931960;29;20234;-60
2022/11/25 05:11:24;;;;;;;0.28;0.28;;;;;;;8.15;53.03;95046.50;4931625;29;20299;-60
2022/11/25 05:13:52;;;;;;;0.10;0.10;;;;;;;8.09;52.59;95044.84;4941681;29;20203;-59
2022/11/25 05:16:19;;;;;;;0.03;0.03;;;;;;;7.97;52.22;95049.34;4936164;28;20192;-60
2022/11/25 05:18:46;;;;;;;0.00;0.00;;;;;;;8.13;52.44;95030.28;4943728;28;20203;-60
2022/11/25 05:21:14;;;;;;;0.00;0.00;;;;;;;8.36;51.79;95048.44;4931181;29;20197;-59
2022/11/25 05:23:42;;;;;;;0.08;0.08;;;;;;;8.17;52.35;95050.44;4943436;28;20263;-60
2022/11/25 05:26:10;;;;;;;0.00;0.00;;;;;;;8.54;51.09;95050.81;4931029;29;20296;-61
2022/11/25 05:28:41;;;;;;;0.75;0.73;;;;;;;8.58;50.57;95058.94;4942876;28;20336;-61
2022/11/25 05:31:10;;;;;;;0.00;0.00;;;;;;;8.45;50.99;95057.47;4950189;29;20207;-62
2022/11/25 05:33:37;;;;;;;0.00;0.00;;;;;;;8.31;51.49;95073.69;4950342;28;20652;-61
2022/11/25 05:36:06;;;;;;;0.00;0.00;;;;;;;8.37;51.15;95073.53;4933739;28;20227;-60
2022/11/25 05:38:41;;;;;;;0.00;0.00;;;;;;;8.08;51.29;95082.41;4942708;28;20552;-62
2022/11/25 05:41:10;;;;;;;0.00;0.00;;;;;;;8.31;51.26;95084.91;4945940;28;20243;-62
2022/11/25 05:43:39;;;;;;;1.85;0.55;;;;;;;8.08;51.50;95077.97;4938704;28;20681;-59
2022/11/25 05:46:07;;;;;;;0.00;0.00;;;;;;;7.92;51.61;95088.38;4943816;28;20241;-60
2022/11/25 05:48:39;;;;;;;0.00;0.00;;;;;;;8.23;51.54;95096.50;4940585;29;20287;-62
2022/11/25 05:51:07;;;;;;;0.00;0.00;;;;;;;7.89;51.81;95099.28;4949210;28;20209;-60
2022/11/25 05:53:35;;;;;;;0.00;0.00;;;;;;;8.30;51.45;95100.81;4950235;29;20266;-60
2022/11/25 05:56:04;;;;;;;0.00;0.00;;;;;;;8.25;50.96;95093.69;4936942;29;20702;-61
2022/11/25 05:58:50;;;;;;;0.75;0.75;;;;;;;8.25;50.55;95101.50;4945516;28;20213;-60
2022/11/25 06:01:17;;;;;;;0.00;0.00;;;;;;;8.17;50.32;95107.09;4939108;28;20334;-60
2022/11/25 06:03:45;;;;;;;0.30;0.30;;;;;;;8.55;49.88;95109.88;4934528;28;20206;-61
2022/11/25 06:06:14;;;;;;;0.55;0.45;;;;;;;9.02;48.80;95113.72;4950097;28;20687;-60
2022/11/25 06:08:41;;;;;;;0.00;0.00;;;;;;;8.79;48.69;95108.69;4950484;28;20324;-60
2022/11/25 06:11:14;;;;;;;0.13;0.13;;;;;;;8.64;48.73;95111.06;4956326;28;20685;-61
2022/11/25 06:13:45;;;;;;;0.00;0.00;;;;;;;8.58;48.98;95127.66;4954086;28;20303;-60
2022/11/25 06:16:19;;;;;;;0.00;0.00;;;;;;;8.75;48.47;95125.84;4937264;29;20196;-61
2022/11/25 06:18:49;;;;;;;0.10;0.10;;;;;;;8.44;48.87;95133.44;4950740;29;20203;-60
2022/11/25 06:21:17;;;;;;;0.00;0.00;;;;;;;8.59;48.66;95131.88;4945534;28;20298;-60
2022/11/25 06:23:44;;;;;;;0.00;0.00;;;;;;;8.95;48.45;95128.78;4953797;28;20208;-61
2022/11/25 06:26:16;;;;;;;0.00;0.00;;;;;;;9.04;47.87;95135.19;4956583;29;20206;-61
2022/11/25 06:28:44;;;;;;;0.00;0.00;;;;;;;8.87;48.46;95129.16;4943205;29;20307;-60
2022/11/25 06:31:17;;;;;;;0.22;0.22;;;;;;;8.42;49.14;95131.06;4937093;29;20295;-60
2022/11/25 06:33:53;;;;;;;0.10;0.10;;;;;;;8.97;48.06;95145.00;4937051;29;20208;-60
2022/11/25 06:36:21;;;;;;;0.00;0.00;;;;;;;8.86;47.87;95148.50;4949464;29;20240;-61
2022/11/25 06:38:52;;;;;;;0.00;0.00;;;;;;;8.96;47.74;95147.84;4950628;28;20688;-61
2022/11/25 06:41:22;;;;;;;0.05;0.05;;;;;;;9.11;47.98;95156.72;4938486;29;20209;-62
2022/11/25 06:43:49;;;;;;;0.00;0.00;;;;;;;9.01;47.39;95143.47;4950845;28;20731;-61
2022/11/25 06:46:18;;;;;;;0.20;0.20;;;;;;;9.00;47.33;95154.97;4950726;28;20240;-59
2022/11/25 06:48:52;;;;;;;1.40;0.98;;;;;;;9.25;46.73;95159.00;4951889;28;20219;-60
2022/11/25 06:51:19;;;;;;;0.20;0.20;;;;;;;9.00;47.03;95169.84;4940966;29;20267;-61
2022/11/25 06:53:46;;;;;;;0.10;0.10;;;;;;;9.15;46.94;95178.72;4949779;29;20581;-60
2022/11/25 06:56:20;;;;;;;1.05;0.50;;;;;;;9.23;46.96;95174.13;4943726;28;20295;-61
2022/11/25 06:58:48;;;;;;;0.00;0.00;;;;;;;8.73;48.00;95184.59;4957257;28;20203;-60
2022/11/25 07:01:21;;;;;;;0.05;0.05;;;;;;;9.17;47.74;95186.34;4952568;28;20200;-61
2022/11/25 07:03:52;;;;;;;0.00;0.00;;;;;;;8.88;47.40;95177.78;4949709;28;20218;-60
2022/11/25 07:06:19;;;;;;;0.00;0.00;;;;;;;9.11;47.83;95198.53;4953335;28;20617;-60
2022/11/25 07:08:47;;;;;;;0.00;0.00;;;;;;;9.04;47.58;95192.69;4949105;29;20226;-59
2022/11/25 07:11:23;;;;;;;0.98;0.80;;;;;;;9.21;47.44;95188.22;4943479;28;20251;-60
2022/11/25 07:13:55;;;;;;;0.00;0.00;;;;;;;9.17;47.79;95200.22;4947417;28;20773;-60
2022/11/25 07:16:21;;;;;;;0.17;0.17;;;;;;;9.38;47.13;95190.03;4937362;29;20291;-61
2022/11/25 07:18:49;;;;;;;0.00;0.00;;;;;;;9.53;47.30;95190.22;4938239;29;20197;-60
2022/11/25 07:21:19;;;;;;;0.00;0.00;;;;;;;9.03;47.45;95185.84;4948300;28;20302;-60
2022/11/25 07:23:47;;;;;;;0.00;0.00;;;;;;;9.30;47.52;95190.44;4943135;28;20294;-60
2022/11/25 07:26:17;;;;;;;0.55;0.55;;;;;;;9.45;46.97;95199.28;4940051;28;20296;-61
2022/11/25 07:28:44;;;;;;;0.73;0.73;;;;;;;9.43;47.27;95201.38;4935111;29;20862;-61
2022/11/25 07:31:15;;;;;;;0.00;0.00;;;;;;;9.48;47.14;95198.81;4937047;28;20215;-62
2022/11/25 07:34:02;;;;;;;0.10;0.10;;;;;;;9.03;47.57;95209.38;4943437;28;20201;-62
2022/11/25 07:36:30;;;;;;;0.63;0.63;;;;;;;8.89;47.84;95200.28;4938919;29;20206;-60
2022/11/25 07:39:00;;;;;;;1.48;1.38;;;;;;;9.16;47.65;95203.03;4953968;28;20251;-60
2022/11/25 07:41:28;;;;;;;0.10;0.10;;;;;;;8.73;47.68;95190.59;4953824;28;20215;-60
2022/11/25 07:43:57;;;;;;;0.10;0.10;;;;;;;9.23;47.23;95196.63;4953823;28;20217;-61
2022/11/25 07:46:26;;;;;;;0.30;0.30;;;;;;;9.23;47.57;95204.47;4923258;28;20270;-60
2022/11/25 07:48:55;;;;;;;6.53;1.55;;;;;;;9.07;47.89;95207.88;4954212;28;20226;-62
2022/11/25 07:51:32;;;;;;;0.00;0.00;;;;;;;9.14;47.54;95213.72;4940238;28;20235;-62
2022/11/25 07:54:01;;;;;;;0.30;0.20;;;;;;;9.36;46.52;95215.63;4947973;29;20203;-61
2022/11/25 07:56:29;;;;;;;0.32;0.32;;;;;;;9.72;45.78;95210.66;4942064;29;20646;-61
2022/11/25 07:58:56;;;;;;;0.80;0.75;;;;;;;9.83;45.76;95219.44;4954084;28;20302;-60
2022/11/25 08:01:24;;;;;;;0.00;0.00;;;;;;;10.03;45.26;95223.09;4940672;29;20258;-61
2022/11/25 08:03:51;;;;;;;0.43;0.43;;;;;;;9.89;45.33;95223.69;4953319;28;20195;-61
2022/11/25 08:06:21;;;;;;;0.10;0.10;;;;;;;10.33;44.35;95222.66;4948935;28;20196;-60
2022/11/25 08:08:48;;;;;;;0.00;0.00;;;;;;;10.35;44.29;95225.03;4934175;29;22049;-61
2022/11/25 08:11:19;;;;;;;0.53;0.53;;;;;;;10.48;44.38;95220.22;4950580;28;20450;-62
2022/11/25 08:13:47;;;;;;;0.27;0.27;;;;;;;10.67;43.92;95224.09;4934178;28;20459;-61
2022/11/25 08:16:16;;;;;;;0.85;0.38;;;;;;;10.90;43.43;95223.78;4933585;29;20515;-60
2022/11/25 08:18:43;;;;;;;0.00;0.00;;;;;;;11.43;42.69;95228.13;4934107;29;20196;-61
2022/11/25 08:21:13;;;;;;;0.00;0.00;;;;;;;11.60;41.89;95233.22;4933342;29;20528;-64
2022/11/25 08:23:42;;;;;;;0.00;0.00;;;;;;;11.00;42.46;95234.34;4932750;29;20453;-63
2022/11/25 08:26:12;;;;;;;0.30;0.30;;;;;;;11.09;42.56;95235.47;4940413;29;20448;-66
2022/11/25 08:28:40;;;;;;;0.05;0.05;;;;;;;11.18;42.79;95228.72;4932581;28;20480;-63
2022/11/25 08:31:17;;;;;;;0.00;0.00;;;;;;;11.29;49.47;95236.69;4933580;29;20555;-61
2022/11/25 08:33:45;;;;;;;1.23;0.40;;;;;;;11.24;47.01;95243.47;4931789;29;20452;-61
2022/11/25 08:36:12;;;;;;;0.00;0.00;;;;;;;11.93;44.12;95238.19;4932363;29;20452;-62
2022/11/25 08:38:40;;;;;;;0.00;0.00;;;;;;;11.65;43.12;95241.16;4932011;29;20499;-61
2022/11/25 08:41:13;;;;;;;0.10;0.10;;;;;;;12.16;42.89;95219.38;4932244;29;20487;-64
2022/11/25 08:43:41;;;;;;;0.23;0.23;;;;;;;12.20;40.60;95217.81;4932390;29;20445;-67
2022/11/25 08:46:13;;;;;;;0.37;0.37;;;;;;;12.21;40.70;95224.63;4932001;29;20476;-69
2022/11/25 08:48:41;;;;;;;0.57;0.57;;;;;;;12.20;40.50;95228.31;4933592;29;20523;-65
2022/11/25 08:51:11;;;;;;;0.00;0.00;;;;;;;11.75;41.04;95230.72;4932003;29;20515;-65
2022/11/25 08:53:39;;;;;;;0.00;0.00;;;;;;;11.47;41.58;95233.66;4944643;29;20452;-64
2022/11/25 08:56:07;;;;;;;2.23;1.03;;;;;;;11.61;41.20;95234.78;4939133;28;20866;-64
2022/11/25 08:58:34;;;;;;;0.50;0.47;;;;;;;11.88;40.66;95225.81;4941990;28;20951;-63
2022/11/25 09:01:01;;;;;;;0.00;0.00;;;;;;;11.99;40.42;95224.00;4938828;28;20436;-69
2022/11/25 09:03:33;;;;;;;0.13;0.13;;;;;;;12.59;40.27;95216.34;4943672;28;20460;-73
2022/11/25 09:06:00;;;;;;;0.60;0.53;;;;;;;12.33;39.94;95222.59;4933295;29;20487;-66
2022/11/25 09:08:27;;;;;;;0.00;0.00;;;;;;;12.59;39.22;95218.97;4941127;29;20963;-61
2022/11/25 09:10:54;;;;;;;0.40;0.40;;;;;;;12.64;39.77;95219.00;4938591;28;20520;-65
2022/11/25 09:13:21;;;;;;;0.90;0.90;;;;;;;12.70;40.12;95223.22;4939467;28;20447;-67
2022/11/25 09:15:48;;;;;;;2.30;2.10;;;;;;;12.12;40.69;95229.59;4952851;28;20907;-66
2022/11/25 09:18:17;;;;;;;1.13;1.03;;;;;;;12.08;40.00;95235.59;4932714;29;20452;-63
2022/11/25 09:20:45;;;;;;;0.00;0.00;;;;;;;11.78;40.61;95235.47;4944104;29;20539;-63
2022/11/25 09:23:13;;;;;;;1.43;0.93;;;;;;;12.33;39.76;95227.84;4946973;28;20456;-63
2022/11/25 09:25:40;;;;;;;1.40;0.73;;;;;;;12.85;40.07;95236.38;4933335;28;20499;-62
2022/11/25 09:28:08;;;;;;;0.57;0.57;;;;;;;12.10;40.91;95238.78;4936431;29;20483;-64
2022/11/25 09:30:36;;;;;;;0.30;0.30;;;;;;;12.31;40.72;95240.44;4952164;28;21022;-61
2022/11/25 09:33:03;;;;;;;0.30;0.30;;;;;;;12.86;39.69;95232.72;4949776;28;20479;-63
2022/11/25 09:35:29;;;;;;;0.43;0.43;;;;;;;12.90;39.57;95238.25;4932674;29;20468;-66
2022/11/25 09:37:56;;;;;;;1.70;0.73;;;;;;;12.79;40.78;95231.41;4946142;28;20483;-65
2022/11/25 09:40:33;;;;;;;0.23;0.23;;;;;;;12.48;39.54;95230.50;4933027;29;20849;-63
2022/11/25 09:46:50;;;;;;;0.07;0.07;;;;;;;12.89;39.21;95226.13;4946831;28;20472;-62
2022/11/25 09:49:29;;;;;;;0.00;0.00;;;;;;;13.01;38.57;95224.84;4931540;29;20448;-61
2022/11/25 09:52:25;;;;;;;0.23;0.23;;;;;;;13.25;38.32;95235.66;4936486;28;20895;-63
2022/11/25 09:55:23;;;;;;;0.30;0.30;;;;;;;12.32;39.21;95223.63;4942713;29;20476;-61
2022/11/25 09:58:29;;;;;;;0.40;0.40;;;;;;;11.98;39.91;95235.56;4944582;28;20536;-63
2022/11/25 10:00:57;;;;;;;0.00;0.00;;;;;;;11.44;40.93;95244.66;4945912;29;20534;-63
2022/11/25 10:03:45;;;;;;;1.53;0.87;;;;;;;11.89;40.50;95239.72;4940540;28;20443;-61
2022/11/25 10:06:20;;;;;;;3.20;1.90;;;;;;;12.55;39.74;95227.66;4951406;28;20498;-64
2022/11/25 10:08:59;;;;;;;0.10;0.10;;;;;;;12.69;38.74;95234.78;4941431;28;20573;-63
2022/11/25 10:11:42;;;;;;;0.10;0.10;;;;;;;12.51;39.52;95235.28;4950394;29;20501;-62
2022/11/25 10:14:27;;;;;;;0.40;0.40;;;;;;;12.19;39.95;95253.00;4938748;28;20448;-62
2022/11/25 10:17:16;;;;;;;0.00;0.00;;;;;;;11.95;39.86;95230.84;4939994;29;20866;-61
2022/11/25 10:20:01;;;;;;;0.10;0.10;;;;;;;11.86;40.26;95233.13;4948815;28;20447;-62
2022/11/25 10:22:32;;;;;;;0.10;0.10;;;;;;;11.72;40.86;95236.47;4932495;29;20501;-63
2022/11/25 10:25:06;;;;;;;0.50;0.50;;;;;;;11.75;40.38;95234.13;4932418;29;20476;-63
2022/11/25 10:28:00;;;;;;;0.00;0.00;;;;;;;11.83;40.44;95222.34;4943549;28;20547;-64
2022/11/25 10:30:35;;;;;;;1.13;0.97;;;;;;;12.09;40.52;95242.47;4946228;29;20491;-62
2022/11/25 10:33:27;;;;;;;0.00;0.00;;;;;;;11.71;40.92;95225.19;4952581;28;20458;-60
2022/11/25 10:36:13;;;;;;;0.40;0.20;;;;;;;12.13;39.96;95231.16;4952577;28;20461;-63
2022/11/25 10:38:58;;;;;;;0.10;0.10;;;;;;;12.39;39.56;95234.69;4946535;29;20503;-61
2022/11/25 10:41:30;;;;;;;0.73;0.73;;;;;;;11.63;40.20;95228.25;4945530;28;20546;-65
2022/11/25 10:43:56;;;;;;;0.03;0.03;;;;;;;11.60;40.49;95218.28;4945336;28;20447;-64
2022/11/25 10:46:29;;;;;;;0.10;0.10;;;;;;;11.17;40.52;95235.03;4932412;29;20480;-61
2022/11/25 10:49:27;;;;;;;0.00;0.00;;;;;;;11.33;40.39;95249.03;4940213;29;21013;-63
2022/11/25 10:51:56;;;;;;;0.00;0.00;;;;;;;11.57;40.60;95236.38;4936156;28;20514;-60
2022/11/25 10:54:25;;;;;;;0.40;0.40;;;;;;;11.66;40.98;95237.50;4945400;28;20535;-61
2022/11/25 10:57:01;;;;;;;0.10;0.10;;;;;;;11.80;39.95;95236.81;4946013;28;21190;-61
2022/11/25 10:59:31;;;;;;;0.00;0.00;;;;;;;11.95;40.52;95246.59;4950608;29;20448;-65
2022/11/25 11:02:27;;;;;;;0.30;0.30;;;;;;;11.65;40.35;95247.22;4935724;29;20504;-61
2022/11/25 11:04:59;;;;;;;0.00;0.00;;;;;;;11.72;40.23;95252.22;4947802;28;20634;-62
2022/11/25 11:07:29;;;;;;;0.20;0.20;;;;;;;11.34;41.06;95255.88;4948916;29;20443;-63
2022/11/25 11:10:17;;;;;;;1.50;0.33;;;;;;;11.40;41.09;95254.88;4935282;29;20508;-59
2022/11/25 11:13:19;;;;;;;0.07;0.07;;;;;;;11.37;40.64;95252.75;4936486;28;20990;-65
2022/11/25 11:15:47;;;;;;;0.00;0.00;;;;;;;11.27;41.00;95254.50;4954461;29;20530;-62
2022/11/25 11:18:29;;;;;;;0.00;0.00;;;;;;;11.43;41.08;95253.56;4940397;28;20479;-60
2022/11/25 11:20:58;;;;;;;0.17;0.17;;;;;;;11.31;41.20;95255.59;4954177;28;20462;-65
2022/11/25 11:23:27;;;;;;;0.20;0.20;;;;;;;11.30;41.75;95254.00;4953991;28;20542;-60
2022/11/25 11:26:02;;;;;;;0.33;0.13;;;;;;;11.39;41.54;95255.91;4942691;28;20448;-61
2022/11/25 11:28:38;;;;;;;0.30;0.30;;;;;;;11.76;41.05;95248.06;4953452;28;20450;-63
2022/11/25 11:31:23;;;;;;;0.00;0.00;;;;;;;11.43;41.79;95258.81;4942261;28;20492;-66
2022/11/25 11:34:00;;;;;;;0.10;0.10;;;;;;;11.01;42.51;95251.66;4941892;29;20498;-60
2022/11/25 11:36:46;;;;;;;0.63;0.30;;;;;;;10.63;43.15;95264.13;4940085;28;20543;-61
2022/11/25 11:39:43;;;;;;;0.00;0.00;;;;;;;11.38;46.98;95266.66;4944982;28;21030;-59
2022/11/25 11:42:39;;;;;;;0.00;0.00;;;;;;;10.95;44.08;95270.22;4940139;29;20443;-58
2022/11/25 11:45:34;;;;;;;0.00;0.00;;;;;;;11.76;41.11;95269.06;4938132;28;20468;-61
2022/11/25 11:48:24;;;;;;;0.00;0.00;;;;;;;12.00;41.08;95267.63;4934199;29;20448;-66
2022/11/25 11:50:57;;;;;;;0.00;0.00;;;;;;;12.21;40.50;95271.94;4934073;29;20491;-63
2022/11/25 11:53:35;;;;;;;0.70;0.60;;;;;;;12.84;39.52;95266.38;4944455;29;20576;-61
2022/11/25 11:56:10;;;;;;;0.00;0.00;;;;;;;13.65;37.22;95251.44;4949812;28;20803;-63
2022/11/25 11:59:25;;;;;;;0.00;0.00;;;;;;;14.13;36.60;95247.38;4948016;28;20865;-63
2022/11/25 12:01:58;;;;;;;0.20;0.20;;;;;;;14.07;36.55;95253.72;4944044;28;20459;-62
2022/11/25 12:04:40;;;;;;;0.10;0.10;;;;;;;14.27;35.89;95258.19;4950325;28;20458;-63
2022/11/25 12:07:36;;;;;;;0.20;0.20;;;;;;;13.79;36.75;95251.69;4941439;28;20447;-59
2022/11/25 12:10:16;;;;;;;0.13;0.13;;;;;;;15.08;35.23;95249.59;4939830;28;20487;-60
2022/11/25 12:13:00;;;;;;;0.20;0.20;;;;;;;15.09;34.15;95256.44;4941771;28;20816;-62
2022/11/25 12:15:42;;;;;;;0.10;0.10;;;;;;;14.67;35.77;95252.75;4934718;28;20461;-60